createdAt,value
2019-05-09T00:01:15.594Z,4.10
2019-05-09T00:03:44.339Z,4.30
2019-05-09T00:06:13.546Z,4.77
2019-05-09T00:08:44.084Z,3.77
2019-05-09T00:11:14.496Z,3.57
2019-05-09T00:13:43.542Z,2.90
2019-05-09T00:16:14.193Z,3.53
2019-05-09T00:18:43.899Z,3.30
2019-05-09T00:21:33.985Z,3.67
2019-05-09T00:24:03.481Z,3.80
2019-05-09T00:26:33.834Z,4.33
2019-05-09T00:29:05.835Z,2.87
2019-05-09T00:31:50.770Z,2.90
2019-05-09T00:34:26.973Z,3.17
2019-05-09T00:36:55.036Z,2.67
2019-05-09T00:39:23.678Z,2.73
2019-05-09T00:41:53.758Z,2.80
2019-05-09T00:44:25.377Z,2.83
2019-05-09T00:47:15.529Z,3.20
2019-05-09T00:49:43.664Z,3.40
2019-05-09T00:52:13.546Z,4.00
2019-05-09T00:54:43.674Z,3.87
2019-05-09T00:57:13.809Z,3.90
2019-05-09T00:59:41.922Z,3.57
2019-05-09T01:02:09.972Z,4.13
2019-05-09T01:04:37.979Z,3.43
2019-05-09T01:07:06.049Z,3.67
2019-05-09T01:09:34.056Z,2.80
2019-05-09T01:12:04.022Z,3.07
2019-05-09T01:14:33.771Z,2.90
2019-05-09T01:17:01.494Z,2.70
2019-05-09T01:19:29.518Z,2.97
2019-05-09T01:21:57.557Z,2.70
2019-05-09T01:24:25.679Z,2.57
2019-05-09T01:26:54.313Z,2.30
2019-05-09T01:29:23.089Z,2.77
2019-05-09T01:31:53.966Z,3.00
2019-05-09T01:34:24.774Z,2.97
2019-05-09T01:37:06.399Z,2.90
2019-05-09T01:39:35.386Z,3.03
2019-05-09T01:42:03.528Z,3.23
2019-05-09T01:44:33.463Z,3.13
2019-05-09T01:47:03.456Z,3.33
2019-05-09T01:49:34.182Z,3.33
2019-05-09T01:52:03.306Z,4.00
2019-05-09T01:54:33.250Z,3.97
2019-05-09T01:57:03.357Z,3.50
2019-05-09T01:59:33.653Z,3.80
2019-05-09T02:02:06.932Z,4.53
2019-05-09T02:04:33.248Z,4.30
2019-05-09T02:07:00.613Z,4.70
2019-05-09T02:09:28.841Z,5.67
2019-05-09T02:11:57.126Z,5.97
2019-05-09T02:14:34.422Z,6.27
2019-05-09T02:17:10.795Z,6.17
2019-05-09T02:19:40.845Z,7.03
2019-05-09T02:22:26.723Z,6.60
2019-05-09T02:24:54.688Z,6.83
2019-05-09T02:27:23.838Z,6.40
2019-05-09T02:29:51.884Z,5.73
2019-05-09T02:32:19.854Z,5.33
2019-05-09T02:34:48.008Z,5.97
2019-05-09T02:37:18.758Z,5.53
2019-05-09T02:39:48.881Z,5.50
2019-05-09T02:42:15.362Z,5.90
2019-05-09T02:44:43.395Z,6.87
2019-05-09T02:47:18.028Z,6.73
2019-05-09T02:49:48.619Z,7.53
2019-05-09T02:52:19.457Z,6.57
2019-05-09T02:54:45.689Z,6.50
2019-05-09T02:57:13.975Z,6.57
2019-05-09T03:00:04.077Z,7.03
2019-05-09T03:02:38.459Z,7.07
2019-05-09T03:05:08.737Z,7.20
2019-05-09T03:07:51.459Z,7.03
2019-05-09T03:10:20.482Z,7.47
2019-05-09T03:12:50.062Z,7.63
2019-05-09T03:15:18.903Z,8.20
2019-05-09T03:17:49.437Z,8.93
2019-05-09T03:20:39.242Z,9.10
2019-05-09T03:23:09.082Z,10.20
2019-05-09T03:25:40.523Z,10.13
2019-05-09T03:28:13.348Z,10.77
2019-05-09T03:30:42.393Z,11.10
2019-05-09T03:33:10.761Z,11.17
2019-05-09T03:35:38.918Z,11.57
2019-05-09T03:38:08.109Z,12.00
2019-05-09T03:40:37.736Z,12.80
2019-05-09T03:43:07.954Z,12.07
2019-05-09T03:45:41.581Z,13.90
2019-05-09T03:48:15.281Z,12.60
2019-05-09T03:50:43.313Z,13.57
2019-05-09T03:53:11.283Z,14.67
2019-05-09T03:55:39.421Z,13.93
2019-05-09T03:58:11.050Z,14.40
2019-05-09T04:00:39.141Z,14.70
2019-05-09T04:03:08.175Z,15.17
2019-05-09T04:05:37.665Z,14.47
2019-05-09T04:08:18.538Z,15.17
2019-05-09T04:10:50.116Z,14.27
2019-05-09T04:13:17.983Z,14.33
2019-05-09T04:15:47.730Z,13.50
2019-05-09T04:18:17.669Z,13.70
2019-05-09T04:20:48.062Z,13.90
2019-05-09T04:23:15.325Z,14.50
2019-05-09T04:25:49.721Z,12.77
2019-05-09T04:28:17.810Z,13.67
2019-05-09T04:30:47.799Z,15.10
2019-05-09T04:33:17.587Z,13.40
2019-05-09T04:35:47.411Z,16.03
2019-05-09T04:38:14.911Z,15.97
2019-05-09T04:40:44.919Z,15.63
2019-05-09T04:43:18.831Z,15.77
2019-05-09T04:45:53.347Z,16.73
2019-05-09T04:48:33.839Z,16.73
2019-05-09T04:51:04.796Z,16.43
2019-05-09T04:53:32.834Z,16.13
2019-05-09T04:56:21.642Z,16.57
2019-05-09T04:58:49.814Z,17.37
2019-05-09T05:01:28.181Z,18.07
2019-05-09T05:03:57.384Z,17.73
2019-05-09T05:06:27.917Z,18.60
2019-05-09T05:08:55.358Z,21.90
2019-05-09T05:11:23.384Z,20.97
2019-05-09T05:13:51.549Z,22.00
2019-05-09T05:16:19.616Z,23.37
2019-05-09T05:18:47.887Z,24.60
2019-05-09T05:21:19.963Z,24.67
2019-05-09T05:24:08.080Z,23.30
2019-05-09T05:26:37.830Z,23.60
2019-05-09T05:29:05.334Z,25.00
2019-05-09T05:31:33.388Z,25.07
2019-05-09T05:34:08.146Z,26.27
2019-05-09T05:36:35.634Z,25.53
2019-05-09T05:39:07.517Z,26.47
2019-05-09T05:41:37.802Z,26.57
2019-05-09T05:44:05.702Z,27.43
2019-05-09T05:46:52.788Z,27.03
2019-05-09T05:49:20.958Z,28.13
2019-05-09T05:51:52.036Z,27.23
2019-05-09T05:54:20.686Z,28.10
2019-05-09T05:56:48.670Z,29.03
2019-05-09T05:59:18.331Z,28.13
2019-05-09T06:01:47.934Z,26.73
2019-05-09T06:04:18.336Z,28.23
2019-05-09T06:06:47.805Z,29.13
2019-05-09T06:09:15.493Z,28.43
2019-05-09T06:11:48.260Z,26.40
2019-05-09T06:14:18.165Z,27.37
2019-05-09T06:16:48.324Z,26.83
2019-05-09T06:19:17.580Z,28.20
2019-05-09T06:21:48.524Z,27.23
2019-05-09T06:24:17.718Z,26.80
2019-05-09T06:26:47.940Z,28.33
2019-05-09T06:29:17.745Z,26.07
2019-05-09T06:31:48.163Z,28.87
2019-05-09T06:37:38.279Z,27.40
2019-05-09T06:40:51.312Z,27.40
2019-05-09T06:43:21.501Z,26.63
2019-05-09T06:46:18.103Z,27.33
2019-05-09T06:48:45.353Z,27.97
2019-05-09T06:51:13.366Z,27.73
2019-05-09T06:53:41.400Z,27.87
2019-05-09T06:56:10.237Z,27.93
2019-05-09T06:58:38.534Z,27.93
2019-05-09T07:01:25.758Z,27.93
2019-05-09T07:03:57.647Z,26.20
2019-05-09T07:06:41.973Z,27.17
2019-05-09T07:09:19.109Z,28.17
2019-05-09T07:11:48.654Z,27.90
2019-05-09T07:14:33.454Z,28.93
2019-05-09T07:17:00.263Z,27.53
2019-05-09T07:19:28.333Z,28.47
2019-05-09T07:22:24.371Z,28.20
2019-05-09T07:25:14.264Z,30.73
2019-05-09T07:27:42.397Z,28.70
2019-05-09T07:30:20.368Z,30.77
2019-05-09T07:32:57.964Z,29.17
2019-05-09T07:35:27.705Z,31.23
2019-05-09T07:37:57.728Z,31.03
2019-05-09T07:40:29.794Z,31.50
2019-05-09T07:42:54.842Z,31.13
2019-05-09T07:45:22.917Z,30.70
2019-05-09T07:47:50.979Z,30.37
2019-05-09T07:50:19.259Z,30.20
2019-05-09T07:52:47.818Z,31.13
2019-05-09T07:55:18.122Z,30.17
2019-05-09T07:57:54.324Z,30.37
2019-05-09T08:00:18.423Z,29.43
2019-05-09T08:02:47.715Z,30.93
2019-05-09T08:05:17.464Z,28.53
2019-05-09T08:07:48.427Z,29.70
2019-05-09T08:10:17.448Z,29.77
2019-05-09T08:12:45.191Z,29.30
2019-05-09T08:15:16.856Z,29.20
2019-05-09T08:17:43.199Z,28.23
2019-05-09T08:20:13.810Z,29.40
2019-05-09T08:22:46.374Z,28.67
2019-05-09T08:25:13.011Z,27.97
2019-05-09T08:27:41.121Z,27.10
2019-05-09T08:30:09.276Z,28.20
2019-05-09T08:32:37.846Z,26.43
2019-05-09T08:35:08.207Z,25.37
2019-05-09T08:37:35.871Z,25.60
2019-05-09T08:40:03.967Z,26.47
2019-05-09T08:42:32.116Z,26.87
2019-05-09T08:45:00.237Z,25.97
2019-05-09T08:47:28.273Z,26.90
2019-05-09T08:50:07.995Z,25.90
2019-05-09T08:52:37.638Z,25.53
2019-05-09T08:55:08.161Z,25.83
2019-05-09T08:57:37.530Z,26.20
2019-05-09T09:00:08.192Z,24.87
2019-05-09T09:02:37.687Z,24.83
2019-05-09T09:05:08.317Z,25.10
2019-05-09T09:07:37.759Z,25.57
2019-05-09T09:10:05.172Z,25.00
2019-05-09T09:12:34.510Z,23.37
2019-05-09T09:15:03.017Z,24.60
2019-05-09T09:17:31.194Z,23.77
2019-05-09T09:19:59.253Z,23.50
2019-05-09T09:22:28.400Z,23.40
2019-05-09T09:24:58.694Z,22.77
2019-05-09T09:27:27.352Z,22.73
2019-05-09T09:29:58.619Z,23.30
2019-05-09T09:32:27.914Z,25.00
2019-05-09T09:34:54.884Z,23.93
2019-05-09T09:37:22.930Z,25.50
2019-05-09T09:39:50.986Z,23.53
2019-05-09T09:42:22.010Z,22.53
2019-05-09T09:44:50.052Z,21.87
2019-05-09T09:47:23.008Z,20.97
2019-05-09T10:07:22.849Z,17.53
2019-05-09T10:38:04.890Z,11.27
2019-05-09T10:40:32.955Z,9.37
2019-05-09T10:46:47.517Z,10.60
2019-05-09T10:49:01.217Z,8.93
2019-05-09T10:51:29.290Z,13.93
2019-05-09T10:53:58.783Z,9.93
2019-05-09T10:56:28.062Z,6.60
2019-05-09T10:58:58.264Z,7.43
2019-05-09T11:01:26.084Z,7.53
2019-05-09T11:03:54.255Z,5.73
2019-05-09T11:06:22.413Z,6.10
2019-05-09T11:08:50.458Z,5.87
2019-05-09T11:11:18.651Z,6.37
2019-05-09T11:13:48.253Z,6.00
2019-05-09T11:16:18.406Z,5.93
2019-05-09T11:18:48.293Z,5.50
2019-05-09T11:21:18.861Z,5.70
2019-05-09T11:23:45.783Z,6.53
2019-05-09T11:26:17.869Z,5.60
2019-05-09T11:28:46.276Z,6.17
2019-05-09T11:34:23.877Z,6.50
2019-05-09T11:36:52.091Z,6.47
2019-05-09T11:39:35.542Z,5.00
2019-05-09T11:41:50.060Z,4.63
2019-05-09T11:44:18.445Z,4.23
2019-05-09T11:46:47.746Z,4.10
2019-05-09T11:49:17.989Z,3.83
2019-05-09T11:51:48.227Z,3.37
2019-05-09T11:54:17.201Z,4.27
2019-05-09T11:56:48.038Z,2.10
2019-05-09T11:59:15.505Z,2.77
2019-05-09T12:01:43.511Z,2.50
2019-05-09T12:04:11.564Z,2.00
2019-05-09T12:06:39.570Z,2.40
2019-05-09T12:09:08.707Z,2.17
2019-05-09T12:11:40.066Z,2.53
2019-05-09T12:14:08.855Z,2.90
2019-05-09T12:16:38.084Z,1.87
2019-05-09T12:19:06.322Z,1.70
2019-05-09T12:21:38.533Z,2.27
2019-05-09T12:24:04.333Z,2.20
2019-05-09T12:26:32.349Z,1.63
2019-05-09T12:29:00.462Z,2.20
2019-05-09T12:31:29.094Z,1.50
2019-05-09T12:33:59.430Z,1.70
2019-05-09T12:36:28.661Z,1.73
2019-05-09T12:38:59.075Z,1.60
2019-05-09T12:41:30.944Z,2.13
2019-05-09T12:43:57.447Z,1.50
2019-05-09T12:46:28.173Z,1.60
2019-05-09T12:48:55.397Z,2.50
2019-05-09T12:51:23.422Z,1.60
2019-05-09T12:53:53.026Z,1.60
2019-05-09T12:56:21.087Z,1.83
2019-05-09T12:58:49.578Z,2.00
2019-05-09T13:01:18.853Z,1.60
2019-05-09T13:03:48.440Z,1.10
2019-05-09T13:06:20.189Z,2.43
2019-05-09T13:08:47.997Z,1.53
2019-05-09T13:11:18.566Z,1.30
2019-05-09T13:13:47.922Z,1.40
2019-05-09T13:16:22.906Z,1.57
2019-05-09T13:19:05.290Z,1.70
2019-05-09T13:21:33.479Z,3.03
2019-05-09T13:24:01.747Z,1.60
2019-05-09T13:26:31.362Z,1.40
2019-05-09T13:28:59.576Z,1.30
2019-05-09T13:31:29.434Z,1.67
2019-05-09T13:33:58.330Z,2.83
2019-05-09T13:36:28.453Z,3.47
2019-05-09T13:39:03.875Z,2.03
2019-05-09T13:41:26.135Z,3.17
2019-05-09T13:43:59.168Z,2.23
2019-05-09T13:46:24.064Z,2.80
2019-05-09T13:49:25.236Z,1.20
2019-05-09T13:52:00.589Z,1.33
2019-05-09T13:54:22.962Z,1.27
2019-05-09T13:56:57.948Z,1.23
2019-05-09T13:59:23.709Z,2.43
2019-05-09T14:01:51.784Z,1.73
2019-05-09T14:04:19.757Z,0.87
2019-05-09T14:06:48.765Z,1.70
2019-05-09T14:09:19.644Z,1.97
2019-05-09T14:11:47.949Z,2.40
2019-05-09T14:14:17.941Z,4.97
2019-05-09T14:16:47.913Z,2.50
2019-05-09T14:19:31.748Z,2.20
2019-05-09T14:21:47.964Z,1.23
2019-05-09T14:24:18.662Z,2.33
2019-05-09T14:26:44.765Z,3.17
2019-05-09T14:29:13.510Z,5.40
2019-05-09T14:31:42.010Z,3.30
2019-05-09T14:34:10.126Z,2.50
2019-05-09T14:36:40.286Z,1.57
2019-05-09T14:39:09.301Z,2.43
2019-05-09T14:41:38.996Z,3.90
2019-05-09T14:44:09.409Z,3.60
2019-05-09T14:46:39.188Z,7.27
2019-05-09T14:49:07.952Z,2.63
2019-05-09T14:51:38.013Z,2.27
2019-05-09T14:54:08.423Z,1.70
2019-05-09T14:56:41.163Z,1.10
2019-05-09T14:59:05.442Z,1.17
2019-05-09T15:01:33.525Z,1.10
2019-05-09T15:04:01.568Z,1.50
2019-05-09T15:06:30.083Z,1.77
2019-05-09T15:08:58.383Z,3.60
2019-05-09T15:11:28.145Z,3.70
2019-05-09T15:13:58.452Z,3.93
2019-05-09T15:16:28.280Z,3.13
2019-05-09T15:18:58.199Z,1.63
2019-05-09T15:21:25.655Z,1.70
2019-05-09T15:23:53.688Z,1.80
2019-05-09T15:26:21.857Z,1.73
2019-05-09T15:28:50.001Z,1.73
2019-05-09T15:31:18.415Z,1.53
2019-05-09T15:33:48.614Z,1.27
2019-05-09T15:36:19.003Z,1.90
2019-05-09T15:38:48.464Z,2.10
2019-05-09T15:41:18.262Z,1.30
2019-05-09T15:43:48.287Z,1.67
2019-05-09T15:46:20.853Z,1.60
2019-05-09T15:48:48.888Z,4.57
2019-05-09T15:51:18.016Z,2.43
2019-05-09T15:53:48.511Z,2.93
2019-05-09T15:56:15.909Z,1.80
2019-05-09T15:58:44.016Z,2.30
2019-05-09T16:01:12.178Z,3.00
2019-05-09T16:03:40.227Z,3.97
2019-05-09T16:06:09.076Z,3.23
2019-05-09T16:08:38.091Z,2.50
2019-05-09T16:11:08.550Z,2.37
2019-05-09T16:13:37.290Z,4.53
2019-05-09T16:16:05.617Z,4.77
2019-05-09T16:18:34.864Z,3.47
2019-05-09T16:21:02.919Z,2.03
2019-05-09T16:23:30.985Z,1.83
2019-05-09T16:25:58.977Z,2.80
2019-05-09T16:28:27.050Z,5.30
2019-05-09T16:30:55.123Z,4.27
2019-05-09T16:33:23.153Z,5.20
2019-05-09T16:35:52.872Z,5.60
2019-05-09T16:38:21.112Z,4.70
2019-05-09T16:40:49.183Z,2.87
2019-05-09T16:43:17.785Z,5.20
2019-05-09T16:45:47.671Z,9.27
2019-05-09T16:48:17.853Z,8.07
2019-05-09T16:50:57.782Z,5.87
2019-05-09T16:53:35.169Z,3.80
2019-05-09T16:56:03.275Z,3.40
2019-05-09T16:58:32.328Z,4.30
2019-05-09T17:01:00.594Z,3.93
2019-05-09T17:03:28.666Z,5.40
2019-05-09T17:05:58.300Z,4.70
2019-05-09T17:08:28.212Z,4.80
2019-05-09T17:10:58.670Z,8.27
2019-05-09T17:13:28.691Z,7.00
2019-05-09T17:15:59.685Z,4.87
2019-05-09T17:18:28.327Z,4.80
2019-05-09T17:21:18.697Z,4.40
2019-05-09T17:23:44.921Z,5.40
2019-05-09T17:26:13.013Z,4.30
2019-05-09T17:28:41.086Z,5.20
2019-05-09T17:31:09.426Z,5.07
2019-05-09T17:33:38.004Z,6.17
2019-05-09T17:36:06.449Z,5.70
2019-05-09T17:38:34.579Z,7.83
2019-05-09T17:41:02.626Z,8.87
2019-05-09T17:43:30.766Z,3.33
2019-05-09T17:45:59.388Z,10.30
2019-05-09T17:48:28.522Z,11.37
2019-05-09T17:50:57.930Z,6.37
2019-05-09T17:53:28.626Z,2.30
2019-05-09T17:55:58.607Z,3.17
2019-05-09T17:58:32.478Z,3.10
2019-05-09T18:00:57.651Z,2.43
2019-05-09T18:03:28.865Z,3.10
2019-05-09T18:05:57.707Z,4.37
2019-05-09T18:08:31.960Z,2.57
2019-05-09T18:11:00.089Z,2.93
2019-05-09T18:13:30.634Z,4.37
2019-05-09T18:16:18.751Z,7.70
2019-05-09T18:18:47.903Z,12.07
2019-05-09T18:21:15.232Z,14.40
2019-05-09T18:23:43.294Z,16.07
2019-05-09T18:26:11.311Z,21.33
2019-05-09T18:28:48.788Z,14.30
2019-05-09T18:31:16.844Z,21.67
2019-05-09T18:34:07.753Z,25.93
2019-05-09T18:36:38.233Z,31.43
2019-05-09T18:39:07.750Z,24.47
2019-05-09T18:41:59.754Z,13.10
2019-05-09T18:44:27.824Z,7.73
2019-05-09T18:46:57.758Z,7.90
2019-05-09T18:49:49.691Z,17.20
2019-05-09T18:52:17.750Z,12.47
2019-05-09T18:54:45.923Z,19.00
2019-05-09T18:57:14.004Z,22.07
2019-05-09T18:59:42.081Z,16.73
2019-05-09T19:02:10.183Z,48.67
2019-05-09T19:04:38.598Z,52.10
2019-05-09T19:07:21.251Z,47.93
2019-05-09T19:09:36.511Z,44.17
2019-05-09T19:12:04.587Z,23.50
2019-05-09T19:14:32.690Z,24.97
2019-05-09T19:17:18.673Z,31.60
2019-05-09T19:19:55.631Z,33.67
2019-05-09T19:22:23.776Z,31.80
2019-05-09T19:25:07.549Z,22.67
2019-05-09T19:27:35.648Z,12.93
2019-05-09T19:30:04.050Z,14.40
2019-05-09T19:32:32.132Z,11.70
2019-05-09T19:35:00.308Z,9.60
2019-05-09T19:37:28.377Z,9.17
2019-05-09T19:39:56.564Z,9.70
2019-05-09T19:42:24.833Z,6.43
2019-05-09T19:48:02.206Z,4.53
2019-05-09T19:50:30.281Z,3.40
2019-05-09T19:52:58.293Z,4.43
2019-05-09T19:55:26.340Z,4.17
2019-05-09T19:57:54.375Z,5.40
2019-05-09T20:00:22.544Z,5.87
2019-05-09T20:02:50.660Z,5.40
2019-05-09T20:05:18.704Z,9.63
2019-05-09T20:07:46.920Z,4.77
2019-05-09T20:10:33.165Z,3.93
2019-05-09T20:13:25.049Z,3.40
2019-05-09T20:15:53.236Z,2.77
2019-05-09T20:18:21.629Z,2.33
2019-05-09T20:20:49.642Z,1.73
2019-05-09T20:23:17.866Z,2.63
2019-05-09T20:25:46.042Z,3.40
2019-05-09T20:28:14.125Z,8.13
2019-05-09T20:30:42.181Z,6.87
2019-05-09T20:33:10.271Z,4.93
2019-05-09T20:35:39.073Z,5.80
2019-05-09T20:38:07.789Z,6.27
2019-05-09T20:40:36.104Z,7.03
2019-05-09T20:43:04.532Z,6.60
2019-05-09T20:45:32.892Z,6.80
2019-05-09T20:48:01.154Z,5.50
2019-05-09T20:50:29.564Z,5.90
2019-05-09T20:53:09.144Z,5.70
2019-05-09T20:55:28.503Z,4.53
2019-05-09T20:57:56.712Z,4.90
2019-05-09T21:00:25.120Z,3.80
2019-05-09T21:02:53.471Z,5.23
2019-05-09T21:05:21.902Z,4.97
2019-05-09T21:07:50.087Z,3.07
2019-05-09T21:10:18.309Z,3.77
2019-05-09T21:12:46.855Z,4.43
2019-05-09T21:15:15.300Z,4.10
2019-05-09T21:17:43.641Z,4.00
2019-05-09T21:20:12.266Z,3.77
2019-05-09T21:22:40.806Z,3.80
2019-05-09T21:25:09.468Z,5.07
2019-05-09T21:27:37.790Z,10.00
2019-05-09T21:30:06.258Z,7.80
2019-05-09T21:32:34.651Z,10.57
2019-05-09T21:35:02.861Z,5.30
2019-05-09T21:37:31.037Z,4.10
2019-05-09T21:39:59.751Z,4.00
2019-05-09T21:42:28.124Z,3.90
2019-05-09T21:44:56.499Z,3.50
2019-05-09T21:47:24.499Z,3.57
2019-05-09T21:49:52.573Z,3.60
2019-05-09T21:52:20.727Z,3.50
2019-05-09T21:54:48.914Z,3.70
2019-05-09T21:57:17.515Z,3.90
2019-05-09T21:59:45.463Z,4.70
2019-05-09T22:02:13.903Z,3.47
2019-05-09T22:04:41.954Z,7.73
2019-05-09T22:07:10.291Z,10.40
2019-05-09T22:09:38.565Z,8.83
2019-05-09T22:12:06.655Z,5.47
2019-05-09T22:14:34.701Z,3.70
2019-05-09T22:17:07.935Z,3.97
2019-05-09T22:19:35.982Z,3.77
2019-05-09T22:22:04.010Z,3.67
2019-05-09T22:24:32.145Z,7.03
2019-05-09T22:27:00.192Z,7.90
2019-05-09T22:29:28.230Z,5.33
2019-05-09T22:31:56.291Z,5.67
2019-05-09T22:34:24.319Z,5.33
2019-05-09T22:36:52.360Z,4.87
2019-05-09T22:39:20.882Z,5.03
2019-05-09T22:41:48.970Z,5.80
2019-05-09T22:44:17.118Z,5.50
2019-05-09T22:46:45.166Z,5.03
2019-05-09T22:49:13.207Z,7.23
2019-05-09T22:51:41.275Z,7.27
2019-05-09T22:54:12.887Z,5.20
2019-05-09T22:56:39.066Z,9.00
2019-05-09T22:59:07.093Z,11.03
2019-05-09T23:01:35.823Z,7.07
2019-05-09T23:04:03.789Z,5.80
2019-05-09T23:06:32.071Z,5.27
2019-05-09T23:09:00.411Z,5.10
2019-05-09T23:11:28.549Z,5.93
2019-05-09T23:13:56.614Z,5.30
2019-05-09T23:16:25.450Z,5.83
2019-05-09T23:18:53.650Z,5.07
2019-05-09T23:21:22.101Z,6.13
2019-05-09T23:23:53.473Z,4.30
2019-05-09T23:26:22.411Z,4.70
2019-05-09T23:28:50.453Z,6.40
2019-05-09T23:31:23.115Z,5.53
2019-05-09T23:33:51.101Z,5.83
2019-05-09T23:36:19.141Z,7.10
2019-05-09T23:39:05.017Z,6.10
2019-05-09T23:41:33.064Z,5.17
2019-05-09T23:44:01.214Z,4.10
2019-05-09T23:46:29.271Z,3.93
2019-05-09T23:48:57.199Z,4.53
2019-05-09T23:51:28.371Z,4.43
2019-05-09T23:53:55.489Z,4.57
2019-05-09T23:56:41.381Z,5.10
2019-05-09T23:59:27.374Z,3.73
